sensor_id;sensor_type;location;lat;lon;timestamp;P1;durP1;ratioP1;P2;durP2;ratioP2
27670;SDS011;15077;49.704;9.908;2022-07-29T00:00:07;1.50;;;0.70;;
27670;SDS011;15077;49.704;9.908;2022-07-29T00:02:34;1.02;;;0.70;;
27670;SDS011;15077;49.704;9.908;2022-07-29T00:05:00;1.90;;;0.70;;
27670;SDS011;15077;49.704;9.908;2022-07-29T00:07:28;1.85;;;0.60;;
27670;SDS011;15077;49.704;9.908;2022-07-29T00:09:54;1.63;;;0.73;;
27670;SDS011;15077;49.704;9.908;2022-07-29T00:12:21;1.65;;;0.70;;
27670;SDS011;15077;49.704;9.908;2022-07-29T00:14:49;1.25;;;0.70;;
27670;SDS011;15077;49.704;9.908;2022-07-29T00:17:15;1.42;;;1.00;;
27670;SDS011;15077;49.704;9.908;2022-07-29T00:19:41;0.98;;;0.80;;
27670;SDS011;15077;49.704;9.908;2022-07-29T00:22:07;1.73;;;0.68;;
27670;SDS011;15077;49.704;9.908;2022-07-29T00:24:32;0.85;;;0.60;;
27670;SDS011;15077;49.704;9.908;2022-07-29T00:26:58;0.95;;;0.60;;
27670;SDS011;15077;49.704;9.908;2022-07-29T00:29:24;1.55;;;0.73;;
27670;SDS011;15077;49.704;9.908;2022-07-29T00:31:50;1.42;;;0.90;;
27670;SDS011;15077;49.704;9.908;2022-07-29T00:34:17;2.03;;;0.93;;
27670;SDS011;15077;49.704;9.908;2022-07-29T00:37:01;3.15;;;0.98;;
27670;SDS011;15077;49.704;9.908;2022-07-29T00:39:27;1.98;;;1.00;;
27670;SDS011;15077;49.704;9.908;2022-07-29T00:41:52;2.20;;;0.90;;
27670;SDS011;15077;49.704;9.908;2022-07-29T00:44:18;1.85;;;0.88;;
27670;SDS011;15077;49.704;9.908;2022-07-29T00:46:44;1.52;;;0.70;;
27670;SDS011;15077;49.704;9.908;2022-07-29T00:49:10;2.03;;;0.80;;
27670;SDS011;15077;49.704;9.908;2022-07-29T00:51:36;2.05;;;1.00;;
27670;SDS011;15077;49.704;9.908;2022-07-29T00:54:05;1.73;;;0.95;;
27670;SDS011;15077;49.704;9.908;2022-07-29T00:56:31;2.35;;;1.13;;
27670;SDS011;15077;49.704;9.908;2022-07-29T00:58:58;1.38;;;0.77;;
27670;SDS011;15077;49.704;9.908;2022-07-29T01:01:25;1.65;;;1.00;;
27670;SDS011;15077;49.704;9.908;2022-07-29T01:03:52;1.60;;;0.68;;
27670;SDS011;15077;49.704;9.908;2022-07-29T01:06:18;1.70;;;1.20;;
27670;SDS011;15077;49.704;9.908;2022-07-29T01:08:45;1.60;;;0.90;;
27670;SDS011;15077;49.704;9.908;2022-07-29T01:11:13;0.77;;;0.75;;
27670;SDS011;15077;49.704;9.908;2022-07-29T01:13:41;1.15;;;0.75;;
27670;SDS011;15077;49.704;9.908;2022-07-29T01:16:24;1.40;;;1.00;;
27670;SDS011;15077;49.704;9.908;2022-07-29T01:22:14;1.90;;;0.98;;
27670;SDS011;15077;49.704;9.908;2022-07-29T01:30:26;1.23;;;0.88;;
27670;SDS011;15077;49.704;9.908;2022-07-29T01:32:55;3.10;;;0.77;;
27670;SDS011;15077;49.704;9.908;2022-07-29T01:35:32;1.98;;;1.00;;
27670;SDS011;15077;49.704;9.908;2022-07-29T01:40:58;0.98;;;0.75;;
27670;SDS011;15077;49.704;9.908;2022-07-29T01:43:38;1.35;;;0.93;;
27670;SDS011;15077;49.704;9.908;2022-07-29T01:46:15;2.25;;;1.02;;
27670;SDS011;15077;49.704;9.908;2022-07-29T01:48:55;1.58;;;1.08;;
27670;SDS011;15077;49.704;9.908;2022-07-29T01:51:35;3.10;;;1.13;;
27670;SDS011;15077;49.704;9.908;2022-07-29T01:57:08;2.53;;;1.00;;
27670;SDS011;15077;49.704;9.908;2022-07-29T01:59:38;1.90;;;0.95;;
27670;SDS011;15077;49.704;9.908;2022-07-29T02:02:06;1.35;;;1.00;;
27670;SDS011;15077;49.704;9.908;2022-07-29T02:04:35;2.35;;;1.55;;
27670;SDS011;15077;49.704;9.908;2022-07-29T02:07:05;3.20;;;1.25;;
27670;SDS011;15077;49.704;9.908;2022-07-29T02:09:33;1.67;;;1.10;;
27670;SDS011;15077;49.704;9.908;2022-07-29T02:12:03;1.67;;;1.05;;
27670;SDS011;15077;49.704;9.908;2022-07-29T02:14:34;1.90;;;0.90;;
27670;SDS011;15077;49.704;9.908;2022-07-29T02:17:04;2.25;;;1.25;;
27670;SDS011;15077;49.704;9.908;2022-07-29T02:19:32;2.65;;;1.15;;
27670;SDS011;15077;49.704;9.908;2022-07-29T02:22:01;2.42;;;1.50;;
27670;SDS011;15077;49.704;9.908;2022-07-29T02:24:28;2.13;;;1.17;;
27670;SDS011;15077;49.704;9.908;2022-07-29T02:26:56;1.92;;;0.98;;
27670;SDS011;15077;49.704;9.908;2022-07-29T02:29:26;2.40;;;1.35;;
27670;SDS011;15077;49.704;9.908;2022-07-29T02:31:55;2.00;;;1.63;;
27670;SDS011;15077;49.704;9.908;2022-07-29T02:34:25;4.22;;;1.30;;
27670;SDS011;15077;49.704;9.908;2022-07-29T02:36:53;3.58;;;1.40;;
27670;SDS011;15077;49.704;9.908;2022-07-29T02:39:21;3.35;;;1.52;;
27670;SDS011;15077;49.704;9.908;2022-07-29T02:41:52;3.88;;;1.65;;
27670;SDS011;15077;49.704;9.908;2022-07-29T02:44:27;6.75;;;2.17;;
27670;SDS011;15077;49.704;9.908;2022-07-29T02:49:50;2.85;;;1.20;;
27670;SDS011;15077;49.704;9.908;2022-07-29T02:52:39;1.70;;;1.35;;
27670;SDS011;15077;49.704;9.908;2022-07-29T03:00:40;2.40;;;1.13;;
27670;SDS011;15077;49.704;9.908;2022-07-29T03:03:11;1.98;;;1.45;;
27670;SDS011;15077;49.704;9.908;2022-07-29T03:05:40;2.30;;;1.17;;
27670;SDS011;15077;49.704;9.908;2022-07-29T03:08:08;1.80;;;1.15;;
27670;SDS011;15077;49.704;9.908;2022-07-29T03:10:37;2.75;;;1.30;;
27670;SDS011;15077;49.704;9.908;2022-07-29T03:13:10;2.13;;;1.20;;
27670;SDS011;15077;49.704;9.908;2022-07-29T03:15:38;2.65;;;1.30;;
27670;SDS011;15077;49.704;9.908;2022-07-29T03:18:05;2.08;;;1.10;;
27670;SDS011;15077;49.704;9.908;2022-07-29T03:20:31;2.17;;;1.20;;
27670;SDS011;15077;49.704;9.908;2022-07-29T03:22:57;2.92;;;1.35;;
27670;SDS011;15077;49.704;9.908;2022-07-29T03:25:23;1.92;;;1.13;;
27670;SDS011;15077;49.704;9.908;2022-07-29T03:27:49;3.45;;;1.42;;
27670;SDS011;15077;49.704;9.908;2022-07-29T03:30:15;2.38;;;1.40;;
27670;SDS011;15077;49.704;9.908;2022-07-29T03:32:42;2.10;;;1.42;;
27670;SDS011;15077;49.704;9.908;2022-07-29T03:35:07;1.85;;;1.20;;
27670;SDS011;15077;49.704;9.908;2022-07-29T03:37:33;2.22;;;1.30;;
27670;SDS011;15077;49.704;9.908;2022-07-29T03:40:03;2.05;;;1.10;;
27670;SDS011;15077;49.704;9.908;2022-07-29T03:45:03;1.48;;;0.70;;
27670;SDS011;15077;49.704;9.908;2022-07-29T03:47:35;1.42;;;0.85;;
27670;SDS011;15077;49.704;9.908;2022-07-29T03:50:06;1.70;;;1.05;;
27670;SDS011;15077;49.704;9.908;2022-07-29T03:52:35;1.98;;;1.40;;
27670;SDS011;15077;49.704;9.908;2022-07-29T03:55:02;1.60;;;1.10;;
27670;SDS011;15077;49.704;9.908;2022-07-29T03:57:28;3.03;;;0.90;;
27670;SDS011;15077;49.704;9.908;2022-07-29T03:59:57;2.08;;;1.00;;
27670;SDS011;15077;49.704;9.908;2022-07-29T04:02:24;1.60;;;1.00;;
27670;SDS011;15077;49.704;9.908;2022-07-29T04:04:51;3.15;;;1.67;;
27670;SDS011;15077;49.704;9.908;2022-07-29T04:07:17;2.75;;;1.10;;
27670;SDS011;15077;49.704;9.908;2022-07-29T04:09:43;1.45;;;0.98;;
27670;SDS011;15077;49.704;9.908;2022-07-29T04:12:09;1.80;;;1.02;;
27670;SDS011;15077;49.704;9.908;2022-07-29T04:14:35;2.72;;;1.20;;
27670;SDS011;15077;49.704;9.908;2022-07-29T04:17:02;1.58;;;1.13;;
27670;SDS011;15077;49.704;9.908;2022-07-29T04:19:29;3.28;;;1.25;;
27670;SDS011;15077;49.704;9.908;2022-07-29T04:21:55;3.22;;;1.15;;
27670;SDS011;15077;49.704;9.908;2022-07-29T04:24:22;2.35;;;1.80;;
27670;SDS011;15077;49.704;9.908;2022-07-29T04:26:48;2.00;;;1.27;;
27670;SDS011;15077;49.704;9.908;2022-07-29T04:29:14;1.58;;;0.88;;
27670;SDS011;15077;49.704;9.908;2022-07-29T04:31:40;1.45;;;0.77;;
27670;SDS011;15077;49.704;9.908;2022-07-29T04:34:07;1.25;;;0.75;;
27670;SDS011;15077;49.704;9.908;2022-07-29T04:36:34;2.92;;;1.33;;
27670;SDS011;15077;49.704;9.908;2022-07-29T04:38:59;2.60;;;0.95;;
27670;SDS011;15077;49.704;9.908;2022-07-29T04:41:26;1.77;;;1.10;;
27670;SDS011;15077;49.704;9.908;2022-07-29T04:43:55;2.13;;;1.17;;
27670;SDS011;15077;49.704;9.908;2022-07-29T04:46:22;2.05;;;0.90;;
27670;SDS011;15077;49.704;9.908;2022-07-29T04:48:48;1.25;;;0.88;;
27670;SDS011;15077;49.704;9.908;2022-07-29T04:51:14;1.92;;;0.65;;
27670;SDS011;15077;49.704;9.908;2022-07-29T04:53:41;2.30;;;1.13;;
27670;SDS011;15077;49.704;9.908;2022-07-29T04:56:07;1.63;;;1.10;;
27670;SDS011;15077;49.704;9.908;2022-07-29T04:58:34;3.08;;;1.20;;
27670;SDS011;15077;49.704;9.908;2022-07-29T05:01:00;1.80;;;1.17;;
27670;SDS011;15077;49.704;9.908;2022-07-29T05:03:27;2.80;;;1.02;;
27670;SDS011;15077;49.704;9.908;2022-07-29T05:05:53;1.23;;;0.70;;
27670;SDS011;15077;49.704;9.908;2022-07-29T05:08:18;3.45;;;1.60;;
27670;SDS011;15077;49.704;9.908;2022-07-29T05:10:44;1.70;;;0.93;;
27670;SDS011;15077;49.704;9.908;2022-07-29T05:13:11;2.05;;;1.20;;
27670;SDS011;15077;49.704;9.908;2022-07-29T05:15:37;2.22;;;1.20;;
27670;SDS011;15077;49.704;9.908;2022-07-29T05:18:03;1.42;;;1.08;;
27670;SDS011;15077;49.704;9.908;2022-07-29T05:20:29;1.73;;;1.02;;
27670;SDS011;15077;49.704;9.908;2022-07-29T05:22:57;1.90;;;1.05;;
27670;SDS011;15077;49.704;9.908;2022-07-29T05:25:25;2.33;;;0.90;;
27670;SDS011;15077;49.704;9.908;2022-07-29T05:27:52;1.90;;;1.20;;
27670;SDS011;15077;49.704;9.908;2022-07-29T05:30:19;2.80;;;1.02;;
27670;SDS011;15077;49.704;9.908;2022-07-29T05:32:45;1.83;;;1.20;;
27670;SDS011;15077;49.704;9.908;2022-07-29T05:35:12;1.60;;;0.93;;
27670;SDS011;15077;49.704;9.908;2022-07-29T05:37:39;3.25;;;1.58;;
27670;SDS011;15077;49.704;9.908;2022-07-29T05:40:07;2.28;;;1.33;;
27670;SDS011;15077;49.704;9.908;2022-07-29T05:42:33;5.18;;;1.80;;
27670;SDS011;15077;49.704;9.908;2022-07-29T05:44:59;1.85;;;1.20;;
27670;SDS011;15077;49.704;9.908;2022-07-29T05:47:26;2.38;;;1.40;;
27670;SDS011;15077;49.704;9.908;2022-07-29T05:49:52;3.90;;;1.40;;
27670;SDS011;15077;49.704;9.908;2022-07-29T05:52:19;1.83;;;1.10;;
27670;SDS011;15077;49.704;9.908;2022-07-29T05:54:45;3.60;;;1.55;;
27670;SDS011;15077;49.704;9.908;2022-07-29T05:57:20;4.60;;;1.75;;
27670;SDS011;15077;49.704;9.908;2022-07-29T05:59:48;2.90;;;1.77;;
27670;SDS011;15077;49.704;9.908;2022-07-29T06:02:15;2.72;;;1.80;;
27670;SDS011;15077;49.704;9.908;2022-07-29T06:04:42;2.63;;;1.85;;
27670;SDS011;15077;49.704;9.908;2022-07-29T06:07:08;4.25;;;1.77;;
27670;SDS011;15077;49.704;9.908;2022-07-29T06:09:34;3.90;;;2.00;;
27670;SDS011;15077;49.704;9.908;2022-07-29T06:12:00;3.28;;;1.80;;
27670;SDS011;15077;49.704;9.908;2022-07-29T06:14:26;3.78;;;2.05;;
27670;SDS011;15077;49.704;9.908;2022-07-29T06:16:53;2.63;;;1.48;;
27670;SDS011;15077;49.704;9.908;2022-07-29T06:19:19;3.67;;;1.58;;
27670;SDS011;15077;49.704;9.908;2022-07-29T06:21:47;3.53;;;1.77;;
27670;SDS011;15077;49.704;9.908;2022-07-29T06:24:13;4.93;;;1.88;;
27670;SDS011;15077;49.704;9.908;2022-07-29T06:26:40;2.90;;;2.08;;
27670;SDS011;15077;49.704;9.908;2022-07-29T06:29:07;5.05;;;2.10;;
27670;SDS011;15077;49.704;9.908;2022-07-29T06:31:35;4.07;;;2.65;;
27670;SDS011;15077;49.704;9.908;2022-07-29T06:34:01;3.67;;;2.47;;
27670;SDS011;15077;49.704;9.908;2022-07-29T06:36:28;4.18;;;2.08;;
27670;SDS011;15077;49.704;9.908;2022-07-29T06:38:53;4.38;;;2.53;;
27670;SDS011;15077;49.704;9.908;2022-07-29T06:41:19;8.82;;;2.30;;
27670;SDS011;15077;49.704;9.908;2022-07-29T06:43:46;6.88;;;1.95;;
27670;SDS011;15077;49.704;9.908;2022-07-29T06:46:13;3.30;;;1.80;;
27670;SDS011;15077;49.704;9.908;2022-07-29T06:48:43;2.95;;;1.88;;
27670;SDS011;15077;49.704;9.908;2022-07-29T06:51:10;2.60;;;1.42;;
27670;SDS011;15077;49.704;9.908;2022-07-29T06:53:37;3.95;;;1.80;;
27670;SDS011;15077;49.704;9.908;2022-07-29T06:56:04;3.47;;;1.50;;
27670;SDS011;15077;49.704;9.908;2022-07-29T06:58:33;2.47;;;1.45;;
27670;SDS011;15077;49.704;9.908;2022-07-29T07:01:01;2.80;;;1.35;;
27670;SDS011;15077;49.704;9.908;2022-07-29T07:03:29;4.55;;;1.77;;
27670;SDS011;15077;49.704;9.908;2022-07-29T07:05:55;1.92;;;1.40;;
27670;SDS011;15077;49.704;9.908;2022-07-29T07:08:21;5.50;;;1.73;;
27670;SDS011;15077;49.704;9.908;2022-07-29T07:10:48;2.67;;;1.67;;
27670;SDS011;15077;49.704;9.908;2022-07-29T07:13:15;3.97;;;1.85;;
27670;SDS011;15077;49.704;9.908;2022-07-29T07:15:42;3.17;;;2.30;;
27670;SDS011;15077;49.704;9.908;2022-07-29T07:18:09;2.47;;;1.75;;
27670;SDS011;15077;49.704;9.908;2022-07-29T07:20:35;6.43;;;1.92;;
27670;SDS011;15077;49.704;9.908;2022-07-29T07:23:02;2.78;;;1.63;;
27670;SDS011;15077;49.704;9.908;2022-07-29T07:25:29;4.65;;;1.98;;
27670;SDS011;15077;49.704;9.908;2022-07-29T07:27:55;3.22;;;1.75;;
27670;SDS011;15077;49.704;9.908;2022-07-29T07:30:21;5.82;;;2.10;;
27670;SDS011;15077;49.704;9.908;2022-07-29T07:32:46;4.32;;;1.50;;
27670;SDS011;15077;49.704;9.908;2022-07-29T07:35:12;3.03;;;2.03;;
27670;SDS011;15077;49.704;9.908;2022-07-29T07:37:39;3.40;;;2.22;;
27670;SDS011;15077;49.704;9.908;2022-07-29T07:40:08;3.45;;;2.10;;
27670;SDS011;15077;49.704;9.908;2022-07-29T07:42:39;3.70;;;2.08;;
27670;SDS011;15077;49.704;9.908;2022-07-29T07:45:06;2.65;;;2.00;;
27670;SDS011;15077;49.704;9.908;2022-07-29T07:47:34;3.95;;;1.95;;
27670;SDS011;15077;49.704;9.908;2022-07-29T07:50:02;2.30;;;1.77;;
27670;SDS011;15077;49.704;9.908;2022-07-29T07:52:30;3.78;;;1.85;;
27670;SDS011;15077;49.704;9.908;2022-07-29T07:54:57;2.42;;;1.70;;
27670;SDS011;15077;49.704;9.908;2022-07-29T07:57:23;3.25;;;2.05;;
27670;SDS011;15077;49.704;9.908;2022-07-29T07:59:48;3.17;;;2.10;;
27670;SDS011;15077;49.704;9.908;2022-07-29T08:02:14;2.20;;;1.73;;
27670;SDS011;15077;49.704;9.908;2022-07-29T08:04:40;2.97;;;1.67;;
27670;SDS011;15077;49.704;9.908;2022-07-29T08:07:06;2.83;;;1.70;;
27670;SDS011;15077;49.704;9.908;2022-07-29T08:09:34;2.85;;;1.65;;
27670;SDS011;15077;49.704;9.908;2022-07-29T08:12:00;3.78;;;1.85;;
27670;SDS011;15077;49.704;9.908;2022-07-29T08:14:30;3.97;;;1.92;;
27670;SDS011;15077;49.704;9.908;2022-07-29T08:16:57;2.20;;;1.77;;
27670;SDS011;15077;49.704;9.908;2022-07-29T08:19:23;2.30;;;1.48;;
27670;SDS011;15077;49.704;9.908;2022-07-29T08:21:49;2.17;;;1.80;;
27670;SDS011;15077;49.704;9.908;2022-07-29T08:24:14;2.28;;;1.85;;
27670;SDS011;15077;49.704;9.908;2022-07-29T08:27:19;1.83;;;1.60;;
27670;SDS011;15077;49.704;9.908;2022-07-29T08:29:45;2.90;;;1.85;;
27670;SDS011;15077;49.704;9.908;2022-07-29T08:32:11;2.83;;;1.80;;
27670;SDS011;15077;49.704;9.908;2022-07-29T08:34:38;2.65;;;1.60;;
27670;SDS011;15077;49.704;9.908;2022-07-29T08:37:03;2.20;;;1.60;;
27670;SDS011;15077;49.704;9.908;2022-07-29T08:39:29;2.03;;;1.83;;
27670;SDS011;15077;49.704;9.908;2022-07-29T08:41:55;3.28;;;1.67;;
27670;SDS011;15077;49.704;9.908;2022-07-29T08:44:21;2.10;;;1.90;;
27670;SDS011;15077;49.704;9.908;2022-07-29T08:46:47;4.53;;;2.05;;
27670;SDS011;15077;49.704;9.908;2022-07-29T08:49:16;2.67;;;1.52;;
27670;SDS011;15077;49.704;9.908;2022-07-29T08:51:43;2.60;;;1.80;;
27670;SDS011;15077;49.704;9.908;2022-07-29T08:54:09;1.73;;;1.50;;
27670;SDS011;15077;49.704;9.908;2022-07-29T08:56:37;2.92;;;1.40;;
27670;SDS011;15077;49.704;9.908;2022-07-29T08:59:04;1.55;;;1.23;;
27670;SDS011;15077;49.704;9.908;2022-07-29T09:01:31;1.67;;;1.40;;
27670;SDS011;15077;49.704;9.908;2022-07-29T09:04:01;2.35;;;1.67;;
27670;SDS011;15077;49.704;9.908;2022-07-29T09:06:31;2.42;;;1.58;;
27670;SDS011;15077;49.704;9.908;2022-07-29T09:09:02;2.47;;;1.90;;
27670;SDS011;15077;49.704;9.908;2022-07-29T09:11:29;2.47;;;1.95;;
27670;SDS011;15077;49.704;9.908;2022-07-29T09:13:57;1.77;;;1.42;;
27670;SDS011;15077;49.704;9.908;2022-07-29T09:16:23;3.53;;;1.58;;
27670;SDS011;15077;49.704;9.908;2022-07-29T09:18:48;1.98;;;1.60;;
27670;SDS011;15077;49.704;9.908;2022-07-29T09:21:15;1.42;;;1.23;;
27670;SDS011;15077;49.704;9.908;2022-07-29T09:24:02;1.48;;;1.30;;
27670;SDS011;15077;49.704;9.908;2022-07-29T09:26:40;2.33;;;1.35;;
27670;SDS011;15077;49.704;9.908;2022-07-29T09:29:18;2.58;;;1.73;;
27670;SDS011;15077;49.704;9.908;2022-07-29T09:31:48;1.80;;;1.40;;
27670;SDS011;15077;49.704;9.908;2022-07-29T09:34:20;1.83;;;1.40;;
27670;SDS011;15077;49.704;9.908;2022-07-29T09:36:53;2.00;;;1.65;;
27670;SDS011;15077;49.704;9.908;2022-07-29T09:39:27;1.98;;;1.73;;
27670;SDS011;15077;49.704;9.908;2022-07-29T09:41:56;2.60;;;1.40;;
27670;SDS011;15077;49.704;9.908;2022-07-29T09:44:24;2.42;;;1.50;;
27670;SDS011;15077;49.704;9.908;2022-07-29T09:46:57;1.83;;;1.40;;
27670;SDS011;15077;49.704;9.908;2022-07-29T09:49:36;1.98;;;1.20;;
27670;SDS011;15077;49.704;9.908;2022-07-29T09:52:16;1.48;;;1.10;;
27670;SDS011;15077;49.704;9.908;2022-07-29T09:54:43;1.20;;;0.98;;
27670;SDS011;15077;49.704;9.908;2022-07-29T09:57:22;1.75;;;1.30;;
27670;SDS011;15077;49.704;9.908;2022-07-29T09:59:57;1.90;;;1.35;;
27670;SDS011;15077;49.704;9.908;2022-07-29T10:02:30;1.23;;;1.05;;
27670;SDS011;15077;49.704;9.908;2022-07-29T10:04:58;1.45;;;1.10;;
27670;SDS011;15077;49.704;9.908;2022-07-29T10:07:26;1.55;;;1.30;;
27670;SDS011;15077;49.704;9.908;2022-07-29T10:10:21;3.10;;;1.90;;
27670;SDS011;15077;49.704;9.908;2022-07-29T10:15:29;1.25;;;1.00;;
27670;SDS011;15077;49.704;9.908;2022-07-29T10:17:59;2.67;;;1.13;;
27670;SDS011;15077;49.704;9.908;2022-07-29T10:20:25;2.20;;;1.13;;
27670;SDS011;15077;49.704;9.908;2022-07-29T10:22:52;1.80;;;1.27;;
27670;SDS011;15077;49.704;9.908;2022-07-29T10:25:20;1.50;;;1.30;;
27670;SDS011;15077;49.704;9.908;2022-07-29T10:27:47;1.20;;;0.90;;
27670;SDS011;15077;49.704;9.908;2022-07-29T10:30:18;1.50;;;1.02;;
27670;SDS011;15077;49.704;9.908;2022-07-29T10:35:54;2.53;;;1.35;;
27670;SDS011;15077;49.704;9.908;2022-07-29T10:38:48;2.00;;;1.30;;
27670;SDS011;15077;49.704;9.908;2022-07-29T10:46:26;1.50;;;1.15;;
27670;SDS011;15077;49.704;9.908;2022-07-29T10:49:14;1.88;;;1.25;;
27670;SDS011;15077;49.704;9.908;2022-07-29T10:51:53;2.17;;;1.30;;
27670;SDS011;15077;49.704;9.908;2022-07-29T10:57:17;2.65;;;2.03;;
27670;SDS011;15077;49.704;9.908;2022-07-29T10:59:47;3.67;;;1.52;;
27670;SDS011;15077;49.704;9.908;2022-07-29T11:10:38;3.05;;;1.60;;
27670;SDS011;15077;49.704;9.908;2022-07-29T11:13:05;2.20;;;1.48;;
27670;SDS011;15077;49.704;9.908;2022-07-29T11:15:51;6.22;;;1.95;;
27670;SDS011;15077;49.704;9.908;2022-07-29T11:18:20;3.75;;;1.85;;
27670;SDS011;15077;49.704;9.908;2022-07-29T11:39:35;1.90;;;1.40;;
27670;SDS011;15077;49.704;9.908;2022-07-29T11:44:58;4.20;;;1.88;;
27670;SDS011;15077;49.704;9.908;2022-07-29T11:47:41;2.00;;;1.60;;
27670;SDS011;15077;49.704;9.908;2022-07-29T11:50:15;2.17;;;1.70;;
27670;SDS011;15077;49.704;9.908;2022-07-29T11:53:01;2.88;;;2.03;;
27670;SDS011;15077;49.704;9.908;2022-07-29T11:55:39;4.80;;;1.55;;
27670;SDS011;15077;49.704;9.908;2022-07-29T11:58:06;1.63;;;1.40;;
27670;SDS011;15077;49.704;9.908;2022-07-29T12:00:34;2.33;;;1.50;;
27670;SDS011;15077;49.704;9.908;2022-07-29T12:03:05;4.00;;;1.83;;
27670;SDS011;15077;49.704;9.908;2022-07-29T12:08:04;2.13;;;1.50;;
27670;SDS011;15077;49.704;9.908;2022-07-29T12:10:32;3.65;;;2.42;;
27670;SDS011;15077;49.704;9.908;2022-07-29T12:12:58;2.67;;;1.85;;
27670;SDS011;15077;49.704;9.908;2022-07-29T12:15:25;2.65;;;2.03;;
27670;SDS011;15077;49.704;9.908;2022-07-29T12:17:51;1.85;;;1.40;;
27670;SDS011;15077;49.704;9.908;2022-07-29T12:20:28;3.75;;;2.95;;
27670;SDS011;15077;49.704;9.908;2022-07-29T12:22:55;2.90;;;1.92;;
27670;SDS011;15077;49.704;9.908;2022-07-29T12:25:22;2.05;;;1.70;;
27670;SDS011;15077;49.704;9.908;2022-07-29T12:27:58;3.65;;;1.80;;
27670;SDS011;15077;49.704;9.908;2022-07-29T12:30:40;2.00;;;1.60;;
27670;SDS011;15077;49.704;9.908;2022-07-29T12:33:24;4.03;;;2.20;;
27670;SDS011;15077;49.704;9.908;2022-07-29T12:35:54;2.40;;;2.00;;
27670;SDS011;15077;49.704;9.908;2022-07-29T12:38:24;2.72;;;1.83;;
27670;SDS011;15077;49.704;9.908;2022-07-29T12:40:51;2.08;;;1.88;;
27670;SDS011;15077;49.704;9.908;2022-07-29T12:43:19;3.15;;;1.67;;
27670;SDS011;15077;49.704;9.908;2022-07-29T12:45:49;2.72;;;1.50;;
27670;SDS011;15077;49.704;9.908;2022-07-29T12:48:38;2.45;;;2.13;;
27670;SDS011;15077;49.704;9.908;2022-07-29T12:51:07;3.22;;;1.98;;
27670;SDS011;15077;49.704;9.908;2022-07-29T12:53:36;3.10;;;1.85;;
27670;SDS011;15077;49.704;9.908;2022-07-29T12:56:03;2.88;;;1.70;;
27670;SDS011;15077;49.704;9.908;2022-07-29T12:58:37;1.83;;;1.50;;
27670;SDS011;15077;49.704;9.908;2022-07-29T13:01:13;1.85;;;1.40;;
27670;SDS011;15077;49.704;9.908;2022-07-29T13:06:26;2.33;;;1.52;;
27670;SDS011;15077;49.704;9.908;2022-07-29T13:09:07;1.80;;;1.52;;
27670;SDS011;15077;49.704;9.908;2022-07-29T13:11:41;3.05;;;2.05;;
27670;SDS011;15077;49.704;9.908;2022-07-29T13:14:09;1.80;;;1.20;;
27670;SDS011;15077;49.704;9.908;2022-07-29T13:19:52;3.00;;;1.20;;
27670;SDS011;15077;49.704;9.908;2022-07-29T13:22:31;1.63;;;1.20;;
27670;SDS011;15077;49.704;9.908;2022-07-29T13:24:57;1.60;;;1.30;;
27670;SDS011;15077;49.704;9.908;2022-07-29T13:27:30;3.28;;;1.13;;
27670;SDS011;15077;49.704;9.908;2022-07-29T13:29:58;1.40;;;1.15;;
27670;SDS011;15077;49.704;9.908;2022-07-29T13:32:27;2.33;;;1.35;;
27670;SDS011;15077;49.704;9.908;2022-07-29T13:34:59;1.80;;;1.55;;
27670;SDS011;15077;49.704;9.908;2022-07-29T13:37:28;4.28;;;2.03;;
27670;SDS011;15077;49.704;9.908;2022-07-29T13:39:54;8.15;;;2.30;;
27670;SDS011;15077;49.704;9.908;2022-07-29T13:42:22;5.53;;;2.10;;
27670;SDS011;15077;49.704;9.908;2022-07-29T13:44:48;7.50;;;2.20;;
27670;SDS011;15077;49.704;9.908;2022-07-29T13:47:16;3.65;;;1.70;;
27670;SDS011;15077;49.704;9.908;2022-07-29T13:49:43;3.75;;;2.05;;
27670;SDS011;15077;49.704;9.908;2022-07-29T13:52:09;4.20;;;1.48;;
27670;SDS011;15077;49.704;9.908;2022-07-29T13:54:35;4.90;;;2.08;;
27670;SDS011;15077;49.704;9.908;2022-07-29T13:57:03;4.03;;;2.50;;
27670;SDS011;15077;49.704;9.908;2022-07-29T13:59:30;5.75;;;3.03;;
27670;SDS011;15077;49.704;9.908;2022-07-29T14:01:56;5.75;;;1.75;;
27670;SDS011;15077;49.704;9.908;2022-07-29T14:04:22;2.20;;;1.50;;
27670;SDS011;15077;49.704;9.908;2022-07-29T14:06:51;3.80;;;1.77;;
27670;SDS011;15077;49.704;9.908;2022-07-29T14:09:17;2.30;;;1.27;;
27670;SDS011;15077;49.704;9.908;2022-07-29T14:11:43;2.65;;;1.75;;
27670;SDS011;15077;49.704;9.908;2022-07-29T14:14:10;2.67;;;1.38;;
27670;SDS011;15077;49.704;9.908;2022-07-29T14:16:36;2.85;;;1.58;;
27670;SDS011;15077;49.704;9.908;2022-07-29T14:19:02;1.80;;;1.33;;
27670;SDS011;15077;49.704;9.908;2022-07-29T14:21:28;2.15;;;1.50;;
27670;SDS011;15077;49.704;9.908;2022-07-29T14:23:55;2.50;;;1.40;;
27670;SDS011;15077;49.704;9.908;2022-07-29T14:26:21;3.13;;;1.85;;
27670;SDS011;15077;49.704;9.908;2022-07-29T14:28:47;2.55;;;1.60;;
27670;SDS011;15077;49.704;9.908;2022-07-29T14:31:14;2.78;;;1.73;;
27670;SDS011;15077;49.704;9.908;2022-07-29T14:33:40;3.00;;;1.33;;
27670;SDS011;15077;49.704;9.908;2022-07-29T14:36:06;2.53;;;1.75;;
27670;SDS011;15077;49.704;9.908;2022-07-29T14:38:32;2.90;;;1.67;;
27670;SDS011;15077;49.704;9.908;2022-07-29T14:40:58;2.65;;;1.70;;
27670;SDS011;15077;49.704;9.908;2022-07-29T14:43:24;3.47;;;1.80;;
27670;SDS011;15077;49.704;9.908;2022-07-29T14:45:49;2.72;;;1.98;;
27670;SDS011;15077;49.704;9.908;2022-07-29T14:48:15;2.65;;;1.90;;
27670;SDS011;15077;49.704;9.908;2022-07-29T14:50:41;2.80;;;1.90;;
27670;SDS011;15077;49.704;9.908;2022-07-29T14:53:06;3.38;;;1.83;;
27670;SDS011;15077;49.704;9.908;2022-07-29T14:55:32;2.33;;;1.88;;
27670;SDS011;15077;49.704;9.908;2022-07-29T14:57:58;4.68;;;2.80;;
27670;SDS011;15077;49.704;9.908;2022-07-29T15:00:24;4.88;;;2.22;;
27670;SDS011;15077;49.704;9.908;2022-07-29T15:02:51;2.70;;;2.25;;
27670;SDS011;15077;49.704;9.908;2022-07-29T15:05:17;3.72;;;2.20;;
27670;SDS011;15077;49.704;9.908;2022-07-29T15:07:43;4.47;;;2.42;;
27670;SDS011;15077;49.704;9.908;2022-07-29T15:10:08;5.13;;;2.75;;
27670;SDS011;15077;49.704;9.908;2022-07-29T15:12:34;5.10;;;2.78;;
27670;SDS011;15077;49.704;9.908;2022-07-29T15:15:00;4.95;;;2.97;;
27670;SDS011;15077;49.704;9.908;2022-07-29T15:17:26;6.72;;;3.55;;
27670;SDS011;15077;49.704;9.908;2022-07-29T15:19:52;4.18;;;3.60;;
27670;SDS011;15077;49.704;9.908;2022-07-29T15:22:18;4.72;;;3.70;;
27670;SDS011;15077;49.704;9.908;2022-07-29T15:24:45;5.07;;;3.13;;
27670;SDS011;15077;49.704;9.908;2022-07-29T15:27:10;3.75;;;2.53;;
27670;SDS011;15077;49.704;9.908;2022-07-29T15:29:42;4.57;;;3.17;;
27670;SDS011;15077;49.704;9.908;2022-07-29T15:32:08;3.40;;;2.30;;
27670;SDS011;15077;49.704;9.908;2022-07-29T15:34:35;2.33;;;2.13;;
27670;SDS011;15077;49.704;9.908;2022-07-29T15:37:03;2.17;;;1.92;;
27670;SDS011;15077;49.704;9.908;2022-07-29T15:39:30;3.28;;;2.97;;
27670;SDS011;15077;49.704;9.908;2022-07-29T15:41:56;4.00;;;2.63;;
27670;SDS011;15077;49.704;9.908;2022-07-29T15:44:25;4.20;;;2.47;;
27670;SDS011;15077;49.704;9.908;2022-07-29T15:46:50;2.60;;;2.40;;
27670;SDS011;15077;49.704;9.908;2022-07-29T15:49:35;4.68;;;2.00;;
27670;SDS011;15077;49.704;9.908;2022-07-29T15:52:05;2.75;;;1.90;;
27670;SDS011;15077;49.704;9.908;2022-07-29T15:54:35;4.43;;;1.98;;
27670;SDS011;15077;49.704;9.908;2022-07-29T15:57:03;2.30;;;1.80;;
27670;SDS011;15077;49.704;9.908;2022-07-29T15:59:30;2.38;;;1.70;;
27670;SDS011;15077;49.704;9.908;2022-07-29T16:01:56;2.05;;;1.63;;
27670;SDS011;15077;49.704;9.908;2022-07-29T16:04:23;1.80;;;1.42;;
27670;SDS011;15077;49.704;9.908;2022-07-29T16:06:49;3.80;;;2.40;;
27670;SDS011;15077;49.704;9.908;2022-07-29T16:09:15;2.38;;;1.80;;
27670;SDS011;15077;49.704;9.908;2022-07-29T16:11:42;2.88;;;1.63;;
27670;SDS011;15077;49.704;9.908;2022-07-29T16:14:10;2.03;;;1.55;;